サル島 の空港の天気 - METARとTAF

アミルカル・カブラル国際空港 ( GVAC / SID ) - カーボベルデ サル島
飛行場実況気象(Metar)
観測時間01/23 07:00 CVT (01/23 08:00 UTC)
風向・風速東北東 5m/s
視程3000m
天気現象風塵
少しの雲 雲底高度 430m
気温19℃
湿度73%
気圧1015hPa
METARGVAC 230800Z 06009KT 3000 DU FEW014 19/14 Q1015 NOSIG
過去の天気等 Google飛行場航空写真 Wunderground天気予報

過去48時間のMETAR

飛行場予報(TAF)
発表時間: 1/23 04:00 CVT (1/23 05:00 UTC)
予報対象時間: 23日5時 CVT ~ 24日11時 CVT
風向・風速東北東 7m/s
視程2,800m
天気現象風塵
なし
23日5時 CVT ~ 23日11時 CVT に一時的に
視程4,000m
天気現象煙霧
少しの雲 雲底高度 430m
TAF GVAC 230500Z 2306/2412 07014KT 2800 DU NSC
TEMPO 2306/2312 4000 HZ FEW014